createdAt,value
2022-08-28T00:00:43.707Z,21.57
2022-08-28T00:03:12.718Z,21.38
2022-08-28T00:05:41.515Z,21.52
2022-08-28T00:08:10.599Z,21.86
2022-08-28T00:10:40.278Z,21.73
2022-08-28T00:13:09.468Z,21.92
2022-08-28T00:15:38.320Z,21.72
2022-08-28T00:18:07.218Z,22.08
2022-08-28T00:20:35.491Z,21.93
2022-08-28T00:23:02.913Z,22.16
2022-08-28T00:25:30.699Z,21.82
2022-08-28T00:28:05.213Z,21.90
2022-08-28T00:30:42.756Z,21.97
2022-08-28T00:33:23.339Z,21.81
2022-08-28T00:35:51.549Z,21.73
2022-08-28T00:38:20.541Z,21.82
2022-08-28T00:40:52.017Z,21.79
2022-08-28T00:43:39.652Z,21.81
2022-08-28T00:46:10.881Z,21.93
2022-08-28T00:48:38.278Z,21.85
2022-08-28T00:51:25.784Z,21.50
2022-08-28T00:53:58.620Z,21.51
2022-08-28T00:56:27.742Z,21.59
2022-08-28T00:58:57.800Z,21.66
2022-08-28T01:01:24.736Z,21.55
2022-08-28T01:03:51.696Z,21.18
2022-08-28T01:06:20.868Z,21.65
2022-08-28T01:08:50.540Z,21.76
2022-08-28T01:11:19.629Z,21.96
2022-08-28T01:13:48.714Z,21.84
2022-08-28T01:16:18.356Z,21.68
2022-08-28T01:18:47.168Z,21.36
2022-08-28T01:21:22.482Z,21.57
2022-08-28T01:23:58.363Z,21.57
2022-08-28T01:26:29.954Z,21.52
2022-08-28T01:28:58.719Z,21.43
2022-08-28T01:31:28.474Z,21.30
2022-08-28T01:33:55.469Z,21.17
2022-08-28T01:36:22.363Z,20.79
2022-08-28T01:38:53.099Z,20.84
2022-08-28T01:41:20.997Z,20.85
2022-08-28T01:43:49.107Z,21.08
2022-08-28T01:46:16.097Z,21.06
2022-08-28T01:48:43.800Z,21.40
2022-08-28T01:51:12.098Z,21.45
2022-08-28T01:53:40.090Z,21.55
2022-08-28T01:56:10.861Z,21.54
2022-08-28T01:58:38.730Z,21.38
2022-08-28T02:01:18.971Z,21.42
2022-08-28T02:03:46.916Z,21.52
2022-08-28T02:06:18.022Z,21.55
2022-08-28T02:08:45.118Z,21.18
2022-08-28T02:11:13.033Z,21.62
2022-08-28T02:13:40.473Z,21.43
2022-08-28T02:16:09.405Z,21.67
2022-08-28T02:18:38.050Z,21.71
2022-08-28T02:21:07.067Z,21.70
2022-08-28T02:23:34.207Z,21.58
2022-08-28T02:26:01.148Z,20.96
2022-08-28T02:28:28.182Z,21.37
2022-08-28T02:30:55.368Z,21.46
2022-08-28T02:33:22.333Z,21.12
2022-08-28T02:35:52.419Z,21.33
2022-08-28T02:38:19.255Z,21.23
2022-08-28T02:40:46.206Z,21.16
2022-08-28T02:43:13.074Z,20.94
2022-08-28T02:45:39.920Z,21.06
2022-08-28T02:48:12.059Z,20.49
2022-08-28T02:50:44.021Z,20.74
2022-08-28T02:53:11.896Z,20.87
2022-08-28T02:55:38.697Z,20.83
2022-08-28T02:58:06.933Z,20.84
2022-08-28T03:00:34.133Z,20.73
2022-08-28T03:03:00.963Z,20.52
2022-08-28T03:05:27.828Z,20.50
2022-08-28T03:07:54.961Z,20.54
2022-08-28T03:10:22.486Z,20.67
2022-08-28T03:12:49.503Z,20.54
2022-08-28T03:15:18.318Z,20.72
2022-08-28T03:17:46.042Z,20.75
2022-08-28T03:20:15.352Z,20.83
2022-08-28T03:23:00.998Z,20.55
2022-08-28T03:25:28.185Z,20.78
2022-08-28T03:27:55.539Z,20.72
2022-08-28T03:30:23.641Z,20.79
2022-08-28T03:32:50.516Z,20.95
2022-08-28T03:35:17.774Z,20.66
2022-08-28T03:37:44.778Z,21.04
2022-08-28T03:40:12.982Z,20.80
2022-08-28T03:42:40.004Z,21.18
2022-08-28T03:45:11.307Z,21.15
2022-08-28T03:47:39.618Z,21.26
2022-08-28T03:50:08.857Z,21.13
2022-08-28T03:52:40.024Z,21.22
2022-08-28T03:55:09.911Z,21.15
2022-08-28T03:57:36.903Z,21.09
2022-08-28T04:00:11.114Z,20.94
2022-08-28T04:02:38.337Z,21.16
2022-08-28T04:05:05.824Z,21.10
2022-08-28T04:07:32.693Z,21.17
2022-08-28T04:09:59.647Z,20.83
2022-08-28T04:12:26.475Z,21.30
2022-08-28T04:14:55.304Z,20.87
2022-08-28T04:17:22.120Z,20.99
2022-08-28T04:19:52.879Z,20.80
2022-08-28T04:22:19.876Z,20.82
2022-08-28T04:24:50.511Z,20.61
2022-08-28T04:27:17.365Z,20.47
2022-08-28T04:29:44.310Z,20.57
2022-08-28T04:32:11.211Z,20.41
2022-08-28T04:34:38.714Z,20.13
2022-08-28T04:37:06.652Z,19.80
2022-08-28T04:39:33.870Z,20.22
2022-08-28T04:42:00.968Z,20.03
2022-08-28T04:44:28.105Z,20.00
2022-08-28T04:46:54.982Z,20.22
2022-08-28T04:49:25.857Z,20.07
2022-08-28T04:51:53.041Z,20.06
2022-08-28T04:54:20.619Z,19.79
2022-08-28T04:56:47.497Z,19.85
2022-08-28T04:59:14.710Z,19.89
2022-08-28T05:01:42.788Z,20.04
2022-08-28T05:04:11.714Z,20.09
2022-08-28T05:06:46.586Z,20.09
2022-08-28T05:09:16.183Z,20.20
2022-08-28T05:11:44.130Z,20.10
2022-08-28T05:14:15.865Z,20.20
2022-08-28T05:16:48.963Z,20.15
2022-08-28T05:19:17.099Z,20.10
2022-08-28T05:21:44.243Z,19.52
2022-08-28T05:24:11.823Z,20.06
2022-08-28T05:26:40.198Z,20.06
2022-08-28T05:29:08.203Z,20.23
2022-08-28T05:31:35.342Z,20.18
2022-08-28T05:34:04.895Z,20.23
2022-08-28T05:36:35.922Z,19.69
2022-08-28T05:39:06.122Z,20.15
2022-08-28T05:41:33.854Z,19.94
2022-08-28T05:44:07.465Z,20.12
2022-08-28T05:46:34.825Z,20.05
2022-08-28T05:49:03.941Z,19.83
2022-08-28T05:51:34.539Z,19.88
2022-08-28T05:54:02.448Z,20.11
2022-08-28T05:56:32.908Z,20.08
2022-08-28T05:59:02.000Z,20.24
2022-08-28T06:01:31.510Z,20.13
2022-08-28T06:04:08.691Z,20.18
2022-08-28T06:06:39.685Z,20.12
2022-08-28T06:09:15.914Z,19.74
2022-08-28T06:11:46.321Z,19.88
2022-08-28T06:14:17.471Z,20.19
2022-08-28T06:16:47.364Z,19.99
2022-08-28T06:19:14.816Z,20.17
2022-08-28T06:21:42.063Z,19.62
2022-08-28T06:24:10.693Z,20.31
2022-08-28T06:26:37.511Z,20.21
2022-08-28T06:29:08.018Z,20.33
2022-08-28T06:31:35.156Z,20.40
2022-08-28T06:34:02.450Z,20.40
2022-08-28T06:36:32.532Z,20.55
2022-08-28T06:39:00.644Z,20.45
2022-08-28T06:41:29.021Z,20.33
2022-08-28T06:43:56.609Z,20.40
2022-08-28T06:46:25.196Z,20.49
2022-08-28T06:48:52.876Z,20.36
2022-08-28T06:51:19.965Z,19.87
2022-08-28T06:53:49.963Z,20.07
2022-08-28T06:56:25.941Z,19.95
2022-08-28T06:58:55.839Z,20.03
2022-08-28T07:01:27.234Z,20.23
2022-08-28T07:03:56.994Z,19.91
2022-08-28T07:06:24.242Z,20.29
2022-08-28T07:08:51.662Z,20.12
2022-08-28T07:11:26.319Z,20.08
2022-08-28T07:13:54.718Z,19.81
2022-08-28T07:16:25.163Z,19.77
2022-08-28T07:18:52.318Z,19.48
2022-08-28T07:21:20.717Z,19.93
2022-08-28T07:23:50.452Z,19.99
2022-08-28T07:26:21.286Z,19.83
2022-08-28T07:28:48.909Z,19.92
2022-08-28T07:31:19.167Z,20.29
2022-08-28T07:33:46.699Z,20.01
2022-08-28T07:36:28.868Z,20.31
2022-08-28T07:38:57.611Z,20.22
2022-08-28T07:41:29.988Z,20.30
2022-08-28T07:44:15.756Z,20.34
2022-08-28T07:46:43.211Z,20.38
2022-08-28T07:49:10.814Z,20.19
2022-08-28T07:51:37.863Z,20.11
2022-08-28T07:54:05.526Z,20.17
2022-08-28T07:56:33.267Z,20.21
2022-08-28T07:59:03.611Z,20.02
2022-08-28T08:01:31.614Z,20.09
2022-08-28T08:04:01.583Z,19.74
2022-08-28T08:06:33.211Z,20.08
2022-08-28T08:09:02.177Z,20.04
2022-08-28T08:11:32.583Z,20.13
2022-08-28T08:14:05.814Z,20.12
2022-08-28T08:16:35.681Z,20.11
2022-08-28T08:19:03.538Z,19.82
2022-08-28T08:21:31.057Z,19.65
2022-08-28T08:23:58.845Z,20.01
2022-08-28T08:26:28.406Z,20.24
2022-08-28T08:28:56.439Z,20.38
2022-08-28T08:31:27.894Z,19.94
2022-08-28T08:34:02.105Z,20.50
2022-08-28T08:36:30.709Z,20.76
2022-08-28T08:38:59.885Z,20.27
2022-08-28T08:41:35.503Z,20.89
2022-08-28T08:44:14.396Z,20.83
2022-08-28T08:47:22.728Z,20.91
2022-08-28T08:49:49.542Z,21.15
2022-08-28T08:52:37.463Z,21.13
2022-08-28T08:55:24.896Z,21.18
2022-08-28T08:57:57.181Z,21.32
2022-08-28T09:00:25.356Z,21.32
2022-08-28T09:03:18.851Z,21.33
2022-08-28T09:05:55.248Z,21.30
2022-08-28T09:08:45.999Z,21.19
2022-08-28T09:12:03.933Z,21.39
2022-08-28T09:14:46.275Z,21.46
2022-08-28T09:17:17.818Z,21.60
2022-08-28T09:19:44.615Z,21.71
2022-08-28T09:22:11.867Z,21.72
2022-08-28T09:24:40.229Z,21.93
2022-08-28T09:27:21.631Z,21.98
2022-08-28T09:30:15.413Z,21.89
2022-08-28T09:32:58.162Z,22.43
2022-08-28T09:35:31.146Z,22.63
2022-08-28T09:38:27.844Z,22.63
2022-08-28T09:41:29.290Z,22.52
2022-08-28T09:43:57.365Z,22.92
2022-08-28T09:46:32.599Z,22.94
2022-08-28T09:49:12.307Z,23.13
2022-08-28T09:51:40.037Z,23.13
2022-08-28T09:54:17.418Z,23.22
2022-08-28T09:56:45.116Z,23.57
2022-08-28T09:59:17.929Z,23.43
2022-08-28T10:04:40.801Z,23.74
2022-08-28T10:07:46.249Z,23.52
2022-08-28T10:10:31.934Z,23.63
2022-08-28T10:13:16.299Z,24.11
2022-08-28T10:16:14.631Z,24.87
2022-08-28T10:18:53.241Z,25.73
2022-08-28T10:21:45.446Z,26.40
2022-08-28T10:24:25.989Z,27.11
2022-08-28T10:27:31.864Z,27.75
2022-08-28T10:30:16.549Z,28.31
2022-08-28T10:33:10.403Z,28.77
2022-08-28T10:35:51.619Z,29.13
2022-08-28T10:38:53.053Z,29.30
2022-08-28T10:41:24.075Z,29.98
2022-08-28T10:43:54.344Z,30.36
2022-08-28T10:46:35.143Z,30.42
2022-08-28T10:49:05.746Z,30.02
2022-08-28T10:51:49.124Z,30.50
2022-08-28T10:54:48.877Z,31.03
2022-08-28T10:57:39.517Z,31.16
2022-08-28T11:00:13.483Z,31.70
2022-08-28T11:02:48.717Z,32.91
2022-08-28T11:05:21.929Z,33.44
2022-08-28T11:07:53.345Z,33.54
2022-08-28T11:10:22.555Z,34.20
2022-08-28T11:12:57.312Z,34.13
2022-08-28T11:15:31.496Z,33.82
2022-08-28T11:18:15.907Z,33.41
2022-08-28T11:20:55.669Z,33.22
2022-08-28T11:23:37.556Z,32.83
2022-08-28T11:26:09.691Z,32.92
2022-08-28T11:28:36.537Z,32.99
2022-08-28T11:31:06.404Z,33.29
2022-08-28T11:33:45.661Z,33.31
2022-08-28T11:36:32.812Z,32.91
2022-08-28T11:39:04.174Z,33.44
2022-08-28T11:41:33.100Z,33.70
2022-08-28T11:43:59.864Z,34.12
2022-08-28T11:46:38.880Z,34.18
2022-08-28T11:49:28.245Z,33.99
2022-08-28T11:52:13.828Z,33.91
2022-08-28T11:55:16.801Z,34.16
2022-08-28T11:57:49.584Z,34.54
2022-08-28T12:00:22.586Z,34.63
2022-08-28T12:03:00.765Z,34.77
2022-08-28T12:05:33.584Z,34.85
2022-08-28T12:08:03.011Z,35.33
2022-08-28T12:10:40.742Z,35.46
2022-08-28T12:13:35.812Z,36.02
2022-08-28T12:16:07.818Z,35.70
2022-08-28T12:18:42.833Z,36.46
2022-08-28T12:21:18.101Z,36.65
2022-08-28T12:24:09.751Z,37.50
2022-08-28T12:26:42.776Z,37.90
2022-08-28T12:29:28.480Z,37.83
2022-08-28T12:32:23.106Z,37.68
2022-08-28T12:34:59.029Z,37.42
2022-08-28T12:37:42.914Z,37.42
2022-08-28T12:40:23.337Z,37.98
2022-08-28T12:43:00.381Z,38.11
2022-08-28T12:46:19.692Z,38.58
2022-08-28T12:49:01.322Z,38.26
2022-08-28T12:51:31.397Z,38.14
2022-08-28T12:54:03.413Z,38.28
2022-08-28T12:56:36.708Z,38.24
2022-08-28T12:59:22.079Z,38.47
2022-08-28T13:01:54.723Z,38.57
2022-08-28T13:04:23.797Z,39.01
2022-08-28T13:07:02.289Z,39.62
2022-08-28T13:09:29.526Z,40.47
2022-08-28T13:11:59.155Z,36.76
2022-08-28T13:14:46.045Z,33.98
2022-08-28T13:17:15.419Z,32.70
2022-08-28T13:19:42.650Z,31.86
2022-08-28T13:22:33.517Z,30.95
2022-08-28T13:25:02.664Z,30.43
2022-08-28T13:27:29.544Z,29.88
2022-08-28T13:30:28.241Z,29.40
2022-08-28T13:33:06.460Z,29.05
2022-08-28T13:35:42.243Z,28.65
2022-08-28T13:38:16.721Z,28.32
2022-08-28T13:41:01.839Z,28.28
2022-08-28T13:43:42.292Z,28.17
2022-08-28T13:46:09.235Z,27.87
2022-08-28T13:48:39.048Z,27.99
2022-08-28T13:51:12.699Z,27.63
2022-08-28T13:53:48.337Z,27.58
2022-08-28T13:56:17.140Z,27.32
2022-08-28T13:58:44.761Z,27.32
2022-08-28T14:01:23.092Z,27.36
2022-08-28T14:03:58.937Z,27.27
2022-08-28T14:06:31.465Z,27.32
2022-08-28T14:08:59.162Z,27.24
2022-08-28T14:11:26.702Z,27.02
2022-08-28T14:13:55.705Z,27.00
2022-08-28T14:16:23.411Z,26.99
2022-08-28T14:18:53.039Z,27.03
2022-08-28T14:21:20.330Z,26.85
2022-08-28T14:23:47.070Z,26.58
2022-08-28T14:26:13.978Z,26.67
2022-08-28T14:28:40.797Z,26.45
2022-08-28T14:31:12.303Z,26.50
2022-08-28T14:33:42.370Z,26.63
2022-08-28T14:36:16.939Z,26.51
2022-08-28T14:38:43.823Z,26.35
2022-08-28T14:41:10.785Z,26.42
2022-08-28T14:43:37.842Z,26.38
2022-08-28T14:46:08.300Z,26.39
2022-08-28T14:48:37.889Z,26.18
2022-08-28T14:51:04.899Z,26.30
2022-08-28T14:53:31.846Z,26.23
2022-08-28T14:55:58.627Z,26.12
2022-08-28T14:58:25.659Z,25.90
2022-08-28T15:00:52.986Z,25.89
2022-08-28T15:03:20.338Z,25.83
2022-08-28T15:05:47.919Z,25.89
2022-08-28T15:08:17.640Z,25.80
2022-08-28T15:10:45.446Z,25.83
2022-08-28T15:13:15.202Z,25.70
2022-08-28T15:15:42.709Z,25.74
2022-08-28T15:18:10.883Z,25.69
2022-08-28T15:20:43.092Z,25.77
2022-08-28T15:23:11.002Z,25.71
2022-08-28T15:25:38.149Z,25.60
2022-08-28T15:28:05.769Z,25.63
2022-08-28T15:30:33.081Z,25.55
2022-08-28T15:32:59.910Z,25.55
2022-08-28T15:35:26.644Z,25.55
2022-08-28T15:37:53.977Z,25.62
2022-08-28T15:40:39.829Z,25.68
2022-08-28T15:43:06.920Z,25.72
2022-08-28T15:45:37.759Z,25.69
2022-08-28T15:48:04.751Z,25.68
2022-08-28T15:50:31.728Z,25.53
2022-08-28T15:52:58.870Z,25.61
2022-08-28T15:55:26.474Z,25.27
2022-08-28T15:57:54.608Z,25.49
2022-08-28T16:00:22.015Z,25.74
2022-08-28T16:02:49.059Z,25.63
2022-08-28T16:05:16.675Z,25.67
2022-08-28T16:07:43.764Z,25.53
2022-08-28T16:10:13.517Z,25.54
2022-08-28T16:12:41.355Z,25.60
2022-08-28T16:15:09.267Z,25.62
2022-08-28T16:17:36.448Z,25.70
2022-08-28T16:20:13.177Z,25.63
2022-08-28T16:22:40.188Z,25.52
2022-08-28T16:25:07.922Z,25.72
2022-08-28T16:27:34.693Z,25.34
2022-08-28T16:30:03.029Z,25.66
2022-08-28T16:32:30.251Z,25.69
2022-08-28T16:34:58.413Z,25.63
2022-08-28T16:37:26.186Z,25.69
2022-08-28T16:40:06.677Z,25.64
2022-08-28T16:42:33.505Z,25.75
2022-08-28T16:45:00.335Z,25.73
2022-08-28T16:47:28.445Z,25.79
2022-08-28T16:50:00.691Z,25.80
2022-08-28T16:52:27.947Z,25.77
2022-08-28T16:54:54.777Z,25.69
2022-08-28T16:57:22.049Z,25.76
2022-08-28T16:59:53.033Z,25.82
2022-08-28T17:02:26.627Z,25.79
2022-08-28T17:04:55.694Z,25.80
2022-08-28T17:07:23.081Z,25.77
2022-08-28T17:09:49.936Z,25.62
2022-08-28T17:12:17.217Z,25.85
2022-08-28T17:14:44.263Z,25.81
2022-08-28T17:17:11.819Z,25.86
2022-08-28T17:19:39.066Z,25.75
2022-08-28T17:22:27.361Z,25.80
2022-08-28T17:24:54.846Z,25.79
2022-08-28T17:27:22.584Z,25.82
2022-08-28T17:29:50.890Z,25.82
2022-08-28T17:32:17.752Z,25.74
2022-08-28T17:34:44.866Z,25.82
2022-08-28T17:37:12.220Z,25.91
2022-08-28T17:39:39.268Z,25.92
2022-08-28T17:42:06.313Z,25.61
2022-08-28T17:44:35.393Z,25.65
2022-08-28T17:47:02.356Z,25.68
2022-08-28T17:49:29.267Z,25.63
2022-08-28T17:51:56.276Z,25.60
2022-08-28T17:54:24.490Z,25.46
2022-08-28T17:56:55.110Z,25.45
2022-08-28T17:59:23.847Z,25.38
2022-08-28T18:01:51.217Z,25.47
2022-08-28T18:04:23.788Z,25.48
2022-08-28T18:06:55.062Z,25.37
2022-08-28T18:09:23.318Z,25.28
2022-08-28T18:11:50.746Z,25.36
2022-08-28T18:14:17.724Z,25.14
2022-08-28T18:16:44.872Z,25.43
2022-08-28T18:19:12.151Z,25.34
2022-08-28T18:21:40.262Z,25.15
2022-08-28T18:24:08.409Z,25.18
2022-08-28T18:26:35.195Z,25.06
2022-08-28T18:29:02.037Z,25.10
2022-08-28T18:31:29.028Z,25.20
2022-08-28T18:33:56.011Z,25.11
2022-08-28T18:36:23.405Z,25.20
2022-08-28T18:38:50.364Z,25.16
2022-08-28T18:41:17.242Z,24.96
2022-08-28T18:43:44.222Z,24.87
2022-08-28T18:46:11.706Z,24.95
2022-08-28T18:48:38.618Z,24.85
2022-08-28T18:51:08.043Z,24.93
2022-08-28T18:53:36.117Z,24.71
2022-08-28T18:56:04.514Z,24.77
2022-08-28T18:58:31.668Z,24.65
2022-08-28T19:00:59.873Z,24.59
2022-08-28T19:03:26.920Z,24.65
2022-08-28T19:05:55.198Z,24.40
2022-08-28T19:08:23.508Z,24.49
2022-08-28T19:10:50.415Z,24.45
2022-08-28T19:13:17.765Z,24.44
2022-08-28T19:15:52.795Z,24.43
2022-08-28T19:18:20.072Z,24.43
2022-08-28T19:20:47.213Z,24.39
2022-08-28T19:23:17.418Z,24.26
2022-08-28T19:25:45.300Z,24.09
2022-08-28T19:28:12.279Z,24.14
2022-08-28T19:30:39.091Z,24.04
2022-08-28T19:33:06.399Z,23.98
2022-08-28T19:35:33.993Z,23.86
2022-08-28T19:38:01.231Z,23.80
2022-08-28T19:40:28.688Z,23.73
2022-08-28T19:42:55.536Z,23.84
2022-08-28T19:45:22.483Z,23.76
2022-08-28T19:47:49.497Z,23.71
2022-08-28T19:50:16.594Z,23.70
2022-08-28T19:52:44.878Z,23.75
2022-08-28T19:55:26.173Z,23.81
2022-08-28T19:57:53.541Z,23.65
2022-08-28T20:00:29.481Z,23.75
2022-08-28T20:02:56.493Z,23.76
2022-08-28T20:05:23.897Z,23.69
2022-08-28T20:07:51.566Z,23.68
2022-08-28T20:10:19.443Z,23.82
2022-08-28T20:12:48.811Z,23.60
2022-08-28T20:15:17.618Z,23.75
2022-08-28T20:17:45.382Z,23.66
2022-08-28T20:20:19.501Z,23.80
2022-08-28T20:22:46.353Z,23.65
2022-08-28T20:25:14.777Z,23.75
2022-08-28T20:27:42.088Z,23.76
2022-08-28T20:30:11.005Z,23.84
2022-08-28T20:32:40.148Z,23.79
2022-08-28T20:35:09.005Z,23.75
2022-08-28T20:37:44.917Z,23.84
2022-08-28T20:40:16.120Z,23.80
2022-08-28T20:42:43.854Z,23.65
2022-08-28T20:45:11.129Z,23.54
2022-08-28T20:47:37.981Z,23.56
2022-08-28T20:50:05.233Z,23.58
2022-08-28T20:52:31.981Z,23.53
2022-08-28T20:54:59.241Z,23.53
2022-08-28T20:57:26.238Z,23.49
2022-08-28T20:59:54.223Z,23.54
2022-08-28T21:02:23.588Z,23.52
2022-08-28T21:04:51.205Z,23.44
2022-08-28T21:07:20.113Z,23.37
2022-08-28T21:10:05.129Z,23.40
2022-08-28T21:12:36.334Z,23.49
2022-08-28T21:15:03.949Z,23.13
2022-08-28T21:17:31.106Z,23.14
2022-08-28T21:20:02.894Z,23.29
2022-08-28T21:22:31.796Z,23.19
2022-08-28T21:24:59.748Z,23.21
2022-08-28T21:27:27.079Z,23.25
2022-08-28T21:29:58.790Z,23.03
2022-08-28T21:32:26.974Z,23.05
2022-08-28T21:34:55.240Z,23.12
2022-08-28T21:37:23.079Z,23.04
2022-08-28T21:39:50.067Z,22.96
2022-08-28T21:42:16.909Z,22.82
2022-08-28T21:44:51.223Z,23.01
2022-08-28T21:47:20.055Z,22.92
2022-08-28T21:49:50.877Z,22.91
2022-08-28T21:52:19.346Z,22.77
2022-08-28T21:54:46.479Z,22.83
2022-08-28T21:57:13.473Z,22.79
2022-08-28T21:59:41.344Z,22.89
2022-08-28T22:02:08.368Z,22.65
2022-08-28T22:04:36.020Z,22.57
2022-08-28T22:07:02.773Z,22.74
2022-08-28T22:09:29.629Z,22.71
2022-08-28T22:11:56.489Z,22.60
2022-08-28T22:14:25.274Z,22.64
2022-08-28T22:16:52.265Z,22.61
2022-08-28T22:19:19.363Z,22.58
2022-08-28T22:22:04.621Z,22.51
2022-08-28T22:24:31.504Z,22.51
2022-08-28T22:26:58.266Z,22.53
2022-08-28T22:29:25.724Z,22.31
2022-08-28T22:31:53.058Z,22.46
2022-08-28T22:34:20.016Z,22.46
2022-08-28T22:36:47.184Z,22.45
2022-08-28T22:39:14.363Z,22.35
2022-08-28T22:41:42.269Z,22.35
2022-08-28T22:44:10.050Z,22.29
2022-08-28T22:46:36.975Z,22.38
2022-08-28T22:49:04.453Z,22.35
2022-08-28T22:51:33.872Z,22.34
2022-08-28T22:54:00.832Z,22.34
2022-08-28T22:56:27.574Z,22.20
2022-08-28T22:58:54.337Z,22.26
2022-08-28T23:01:24.359Z,22.29
2022-08-28T23:03:51.286Z,22.21
2022-08-28T23:06:23.878Z,22.17
2022-08-28T23:08:50.688Z,22.20
2022-08-28T23:11:17.663Z,22.31
2022-08-28T23:13:44.528Z,22.29
2022-08-28T23:16:11.633Z,22.36
2022-08-28T23:19:06.715Z,22.46
2022-08-28T23:21:26.412Z,22.67
2022-08-28T23:23:53.668Z,22.71
2022-08-28T23:26:20.806Z,22.79
2022-08-28T23:28:48.024Z,22.56
2022-08-28T23:31:15.032Z,22.69
2022-08-28T23:33:42.176Z,22.90
2022-08-28T23:36:09.979Z,22.83
2022-08-28T23:38:40.757Z,22.96
2022-08-28T23:41:11.311Z,23.05
2022-08-28T23:43:38.726Z,23.14
2022-08-28T23:46:06.421Z,23.09
2022-08-28T23:48:33.836Z,22.97
2022-08-28T23:51:02.615Z,23.01
2022-08-28T23:53:29.822Z,23.01
2022-08-28T23:55:57.652Z,22.90
2022-08-28T23:58:31.939Z,22.77
